Time;durP1;ratioP1;P1;durP2;ratioP2;P2;SDS_P1;SDS_P2;PMS_P1;PMS_P2;Temp;Humidity;BMP_temperature;BMP_pressure;BME280_temperature;BME280_humidity;BME280_pressure;Samples;Min_cycle;Max_cycle;Signal;HPM_P1;HPM_P2
2022/08/11 00:01:41;;;;;;;6.35;1.85;;;16.17;102.09;;;;;;2674566;76;20987;-90
2022/08/11 00:05:09;;;;;;;;;;;16.10;102.29;;;;;;2674874;76;22100;-90
2022/08/11 00:08:38;;;;;;;3.72;1.90;;;16.05;102.46;;;;;;2674840;76;20953;-90
2022/08/11 00:12:06;;;;;;;;;;;16.06;102.76;;;;;;2675097;76;22224;-90
2022/08/11 00:15:40;;;;;;;5.25;2.00;;;16.08;102.92;;;;;;2674709;76;20962;-89
2022/08/11 00:19:08;;;;;;;;;;;16.10;103.12;;;;;;2675338;76;22125;-89
2022/08/11 00:22:38;;;;;;;2.90;1.62;;;16.11;103.31;;;;;;2674592;76;21042;-88
2022/08/11 00:26:06;;;;;;;;;;;16.13;103.38;;;;;;2675042;76;22160;-90
2022/08/11 00:29:35;;;;;;;3.45;1.42;;;16.16;103.43;;;;;;2674588;76;20975;-90
2022/08/11 00:33:03;;;;;;;;;;;16.17;103.62;;;;;;2674813;76;22649;-88
2022/08/11 00:36:50;;;;;;;4.60;2.00;;;16.20;103.87;;;;;;2674484;76;21463;-87
2022/08/11 00:40:27;;;;;;;4.55;1.92;;;16.20;103.82;;;;;;2674314;76;22189;-89
2022/08/11 00:44:01;;;;;;;1.65;1.30;;;16.22;103.84;;;;;;2675142;76;22206;-88
2022/08/11 00:47:29;;;;;;;;;;;16.24;104.07;;;;;;2674799;76;22084;-89
2022/08/11 00:50:59;;;;;;;4.67;1.80;;;16.26;104.15;;;;;;2674511;76;20993;-89
2022/08/11 00:54:27;;;;;;;;;;;16.29;104.39;;;;;;2674830;76;22151;-89
2022/08/11 00:58:04;;;;;;;7.35;1.67;;;16.32;104.42;;;;;;2674308;76;21584;-89
2022/08/11 01:01:51;;;;;;;3.45;1.35;;;16.33;104.38;;;;;;2675243;76;22610;-88
2022/08/11 01:05:31;;;;;;;3.80;1.77;;;16.34;104.50;;;;;;2674391;76;22126;-87
2022/08/11 01:09:13;;;;;;;5.47;1.83;;;16.31;104.52;;;;;;2674867;76;22130;-89
2022/08/11 01:13:00;;;;;;;2.80;1.42;;;16.36;104.83;;;;;;2674639;76;22140;-88
2022/08/11 01:16:46;;;;;;;1.57;1.27;;;16.35;104.86;;;;;;2674611;76;22608;-90
2022/08/11 01:20:16;;;;;;;2.65;1.37;;;16.29;104.77;;;;;;2674000;76;22253;-90
2022/08/11 01:23:45;;;;;;;;;;;16.27;104.78;;;;;;2674818;76;22128;-90
2022/08/11 01:27:16;;;;;;;3.35;1.72;;;16.19;104.82;;;;;;2673802;76;20974;-89
2022/08/11 01:30:45;;;;;;;;;;;16.22;105.25;;;;;;2674733;76;22171;-86
2022/08/11 01:34:27;;;;;;;6.85;1.92;;;16.22;105.41;;;;;;2674411;76;20965;-88
2022/08/11 01:38:14;;;;;;;4.08;2.17;;;16.22;105.38;;;;;;2673983;76;22172;-88
2022/08/11 01:45:36;;;;;;;2.60;1.25;;;16.08;105.51;;;;;;2674266;76;22144;-89
2022/08/11 01:49:04;;;;;;;;;;;16.05;105.76;;;;;;2674923;76;22131;-89
2022/08/11 01:52:47;;;;;;;4.28;1.95;;;16.00;105.82;;;;;;2674094;76;20996;-89
2022/08/11 01:56:21;;;;;;;2.40;1.52;;;15.92;105.93;;;;;;2673972;76;22316;-88
2022/08/11 01:59:49;;;;;;;;;;;15.90;106.05;;;;;;2674192;76;22110;-88
2022/08/11 02:03:26;;;;;;;9.95;2.25;;;15.87;106.50;;;;;;2674144;76;21043;-87
2022/08/11 02:07:11;;;;;;;7.45;2.30;;;15.86;106.48;;;;;;2674483;76;22127;-88
2022/08/11 02:14:38;;;;;;;5.43;1.83;;;15.80;106.64;;;;;;2674007;76;22332;-87
2022/08/11 02:18:07;;;;;;;;;;;15.77;106.76;;;;;;2673994;76;22694;-87
2022/08/11 02:25:46;;;;;;;5.15;1.70;;;15.69;107.15;;;;;;2674026;76;22161;-88
2022/08/11 02:29:20;;;;;;;2.90;1.60;;;15.68;107.33;;;;;;2674364;76;22154;-88
2022/08/11 02:36:40;;;;;;;2.30;1.80;;;15.63;107.47;;;;;;2674674;76;20367;-88
2022/08/11 02:40:09;;;;;;;;;;;15.62;107.65;;;;;;2675148;76;22319;-88
2022/08/11 02:43:37;;;;;;;;;;;15.58;107.71;;;;;;2674493;76;22115;-89
2022/08/11 02:47:13;;;;;;;2.85;1.72;;;15.54;107.93;;;;;;2674138;76;20975;-89
2022/08/11 02:50:40;;;;;;;;;;;15.47;107.86;;;;;;2674451;76;22177;-88
2022/08/11 02:54:08;;;;;;;;;;;15.41;107.91;;;;;;2674791;76;22157;-87
2022/08/11 02:57:39;;;;;;;4.03;1.92;;;15.36;107.88;;;;;;2673862;76;20982;-87
2022/08/11 03:01:10;;;;;;;;;;;15.29;107.95;;;;;;2674442;76;22225;-87
2022/08/11 03:04:39;;;;;;;2.95;1.90;;;15.26;108.27;;;;;;2673838;76;21023;-88
2022/08/11 03:08:07;;;;;;;;;;;15.28;108.49;;;;;;2674409;76;22152;-88
2022/08/11 03:19:32;;;;;;;16.60;2.35;;;15.14;109.03;;;;;;2674152;76;22135;-87
2022/08/11 03:23:01;;;;;;;;;;;15.10;109.12;;;;;;2674820;76;22182;-88
2022/08/11 03:26:37;;;;;;;5.50;1.90;;;15.01;109.17;;;;;;2674324;76;20971;-88
2022/08/11 03:30:04;;;;;;;;;;;14.95;109.18;;;;;;2674838;76;22147;-88
2022/08/11 03:37:50;;;;;;;6.05;2.30;;;14.81;109.60;;;;;;2674520;76;20882;-87
2022/08/11 03:41:45;;;;;;;5.33;2.30;;;14.78;109.87;;;;;;2673831;76;22414;-89
2022/08/11 03:45:18;;;;;;;3.72;2.20;;;14.75;109.94;;;;;;2674530;76;22122;-92
2022/08/11 03:48:46;;;;;;;;;;;14.69;109.94;;;;;;2674659;76;22155;-88
2022/08/11 03:52:20;;;;;;;4.42;2.33;;;14.62;109.88;;;;;;2672445;76;21004;-86
2022/08/11 03:55:48;;;;;;;;;;;14.55;109.99;;;;;;2670885;76;22175;-87
2022/08/11 03:59:25;;;;;;;5.83;2.52;;;14.55;110.24;;;;;;2673587;76;20980;-88
2022/08/11 04:03:10;;;;;;;8.05;2.90;;;14.52;110.35;;;;;;2671320;76;22170;-87
2022/08/11 04:06:44;;;;;;;3.98;2.40;;;14.49;110.55;;;;;;2672273;76;22611;-86
2022/08/11 04:10:12;;;;;;;;;;;14.44;110.66;;;;;;2670836;76;22575;-86
2022/08/11 04:15:58;;;;;;;7.37;2.40;;;14.47;110.74;;;;;;2672505;76;21422;-86
2022/08/11 04:17:34;;;;;;;3.67;2.33;;;14.50;110.85;;;;;;2671834;76;22219;-87
2022/08/11 04:21:02;;;;;;;;;;;14.51;111.00;;;;;;2672785;76;22168;-87
2022/08/11 04:24:51;;;;;;;5.90;2.87;;;14.54;111.10;;;;;;2669354;76;21488;-87
2022/08/11 04:28:34;;;;;;;7.10;2.60;;;14.60;111.38;;;;;;2673030;76;22146;-86
2022/08/11 04:32:22;;;;;;;7.75;3.00;;;14.66;111.58;;;;;;2673327;76;22158;-84
2022/08/11 04:36:02;;;;;;;3.75;2.25;;;14.79;111.97;;;;;;2673432;76;22135;-86
2022/08/11 04:39:35;;;;;;;5.57;2.87;;;14.86;112.21;;;;;;2673981;76;22136;-86
2022/08/11 04:43:22;;;;;;;;;;;14.97;112.31;;;;;;2674470;76;22174;-86
2022/08/11 04:46:55;;;;;;;7.62;2.67;;;15.09;112.37;;;;;;2673519;76;20407;-86
2022/08/11 05:02:09;;;;;;;3.10;2.20;;;15.52;111.98;;;;;;2673279;76;22186;-85
2022/08/11 05:05:56;;;;;;;8.35;2.60;;;15.60;111.91;;;;;;2673701;76;22669;-84
2022/08/11 05:09:29;;;;;;;4.92;2.40;;;15.73;111.84;;;;;;2673995;76;22147;-85
2022/08/11 05:27:09;;;;;;;;;;;15.87;111.74;;;;;;2674219;76;22281;-85
2022/08/11 05:35:44;;;;;;;;;;;16.87;110.74;;;;;;2672064;76;22222;-86
2022/08/11 05:58:19;;;;;;;3.33;1.77;;;17.77;108.85;;;;;;2672319;76;22177;-86
2022/08/11 06:01:47;;;;;;;;;;;17.92;108.37;;;;;;2672721;76;22174;-86
2022/08/11 06:05:16;;;;;;;2.65;1.55;;;18.07;107.77;;;;;;2672732;76;21022;-86
2022/08/11 06:08:44;;;;;;;;;;;18.19;107.44;;;;;;2671015;76;22769;-86
2022/08/11 06:12:24;;;;;;;7.53;2.15;;;18.32;106.56;;;;;;2670836;76;20981;-86
2022/08/11 06:15:54;;;;;;;3.37;1.57;;;18.49;106.21;;;;;;2671430;76;22161;-86
2022/08/11 06:19:23;;;;;;;;;;;18.64;105.89;;;;;;2671170;76;22199;-86
2022/08/11 06:23:00;;;;;;;2.60;1.67;;;18.79;105.50;;;;;;2671229;76;22117;-86
2022/08/11 06:26:28;;;;;;;3.00;2.20;;;18.92;105.28;;;;;;2671898;76;22235;-86
2022/08/11 06:29:57;;;;;;;;;;;19.01;104.72;;;;;;2670834;76;22164;-86
2022/08/11 06:33:38;;;;;;;4.00;1.80;;;19.07;103.89;;;;;;2671045;76;21501;-86
2022/08/11 06:37:11;;;;;;;5.87;2.02;;;19.17;103.94;;;;;;2671825;76;22557;-86
2022/08/11 06:40:39;;;;;;;;;;;19.28;103.58;;;;;;2671263;76;22266;-86
2022/08/11 06:44:13;;;;;;;5.65;1.82;;;19.41;103.20;;;;;;2670329;76;21019;-86
2022/08/11 06:47:41;;;;;;;;;;;19.53;102.86;;;;;;2671305;76;22241;-86
2022/08/11 06:51:13;;;;;;;5.92;1.87;;;19.62;102.78;;;;;;2670825;76;20994;-86
2022/08/11 06:54:41;;;;;;;;;;;19.72;102.45;;;;;;2673258;76;22198;-86
2022/08/11 07:02:03;;;;;;;4.28;2.10;;;19.89;102.32;;;;;;2671306;76;22231;-86
2022/08/11 07:05:33;;;;;;;;;;;19.98;101.65;;;;;;2672688;76;22238;-85
2022/08/11 07:16:44;;;;;;;4.20;1.82;;;20.32;100.65;;;;;;2672609;76;22163;-86
2022/08/11 07:31:40;;;;;;;3.15;1.75;;;20.90;98.64;;;;;;2672762;76;22189;-86
2022/08/11 07:35:07;;;;;;;;;;;21.05;98.65;;;;;;2671749;76;22173;-86
2022/08/11 07:38:43;;;;;;;2.75;1.60;;;21.13;97.84;;;;;;2672813;76;20975;-86
2022/08/11 07:42:13;;;;;;;4.10;1.60;;;21.32;97.72;;;;;;2672439;76;22770;-87
2022/08/11 07:53:17;;;;;;;3.42;1.85;;;21.63;96.17;;;;;;2670827;76;22171;-87
2022/08/11 07:56:46;;;;;;;;;;;21.77;96.23;;;;;;2671902;76;22208;-86
2022/08/11 08:19:14;;;;;;;2.77;1.67;;;22.21;94.06;;;;;;2671143;76;22568;-86
2022/08/11 08:22:42;;;;;;;;;;;22.29;93.64;;;;;;2670626;76;22611;-86
2022/08/11 08:33:46;;;;;;;4.10;1.77;;;22.53;93.33;;;;;;2671085;76;22264;-86
2022/08/11 08:37:15;;;;;;;;;;;22.63;92.21;;;;;;2673062;76;22194;-87
2022/08/11 08:40:45;;;;;;;3.95;1.50;;;22.70;91.76;;;;;;2672095;76;21023;-86
2022/08/11 08:44:15;;;;;;;;;;;22.80;91.23;;;;;;2673136;76;22196;-86
2022/08/11 08:47:46;;;;;;;4.10;1.67;;;22.81;91.40;;;;;;2671584;76;21021;-86
2022/08/11 08:55:05;;;;;;;6.22;1.17;;;23.06;90.86;;;;;;2671451;76;20390;-86
2022/08/11 08:58:34;;;;;;;;;;;23.10;90.32;;;;;;2671555;76;22223;-87
2022/08/11 09:02:03;;;;;;;6.67;1.45;;;23.20;90.21;;;;;;2672648;76;21028;-86
2022/08/11 09:05:32;;;;;;;;;;;23.34;90.18;;;;;;2672148;76;22243;-86
2022/08/11 09:09:01;;;;;;;2.20;1.10;;;23.46;90.26;;;;;;2669972;76;21030;-86
2022/08/11 09:12:29;;;;;;;;;;;23.52;89.17;;;;;;2670921;76;22211;-86
2022/08/11 09:15:58;;;;;;;12.80;1.65;;;23.57;88.99;;;;;;2670454;76;20953;-86
2022/08/11 09:19:26;;;;;;;;;;;23.60;88.31;;;;;;2671219;76;22170;-86
2022/08/11 09:30:17;;;;;;;;;;;23.87;88.00;;;;;;2670774;76;22147;-86
2022/08/11 09:33:46;;;;;;;2.10;1.27;;;24.03;87.74;;;;;;2670892;76;20958;-87
2022/08/11 09:41:04;;;;;;;8.03;1.50;;;24.15;86.44;;;;;;2670719;76;20410;-86
2022/08/11 09:44:47;;;;;;;;;;;24.25;86.14;;;;;;2670906;76;22220;-86
2022/08/11 09:48:17;;;;;;;2.27;1.07;;;24.21;86.01;;;;;;2672397;76;20411;-85
2022/08/11 09:51:45;;;;;;;;;;;24.34;86.01;;;;;;2673460;76;22192;-84
2022/08/11 09:55:15;;;;;;;4.25;1.40;;;24.41;85.49;;;;;;2671911;76;20977;-84
2022/08/11 09:58:43;;;;;;;;;;;24.54;85.26;;;;;;2673089;76;22184;-85
2022/08/11 10:02:12;;;;;;;1.87;1.00;;;24.69;85.26;;;;;;2672187;76;20987;-87
2022/08/11 10:09:29;;;;;;;4.20;0.80;;;24.75;83.63;;;;;;2673098;76;20388;-86
2022/08/11 10:12:58;;;;;;;;;;;24.79;83.81;;;;;;2671292;76;22132;-86
2022/08/11 10:16:28;;;;;;;2.15;1.12;;;24.86;83.64;;;;;;2670937;76;20979;-87
2022/08/11 10:19:57;;;;;;;;;;;25.01;83.21;;;;;;2671805;76;22753;-86
2022/08/11 10:27:14;;;;;;;6.83;0.82;;;25.16;82.19;;;;;;2671095;76;22159;-87
2022/08/11 10:34:29;;;;;;;1.73;0.90;;;25.18;81.22;;;;;;2671341;76;20401;-87
2022/08/11 10:37:57;;;;;;;;;;;25.25;81.36;;;;;;2671805;76;22646;-87
2022/08/11 10:49:02;;;;;;;1.55;1.00;;;25.33;80.46;;;;;;2672605;76;22163;-86
2022/08/11 11:00:05;;;;;;;2.40;1.10;;;25.54;80.30;;;;;;2672743;76;22287;-86
2022/08/11 11:03:33;;;;;;;;;;;25.64;79.92;;;;;;2672347;76;22127;-90
2022/08/11 11:07:12;;;;;;;5.22;1.05;;;25.73;80.33;;;;;;2672354;76;21099;-90
2022/08/11 11:10:41;;;;;;;1.80;1.10;;;25.73;79.78;;;;;;2673943;76;22187;-90
2022/08/11 11:18:00;;;;;;;1.93;1.10;;;25.82;78.97;;;;;;2672794;76;20463;-90
2022/08/11 11:21:27;;;;;;;;;;;25.89;79.19;;;;;;2673103;76;22154;-90
2022/08/11 11:25:08;;;;;;;2.20;0.80;;;25.88;78.93;;;;;;2671949;76;21008;-90
2022/08/11 11:28:45;;;;;;;3.73;1.07;;;25.91;78.93;;;;;;2672249;76;22158;-90
2022/08/11 11:32:16;;;;;;;5.30;0.90;;;25.95;79.12;;;;;;2671950;76;22546;-90
2022/08/11 11:35:44;;;;;;;;;;;25.99;79.04;;;;;;2673323;76;22068;-90
2022/08/11 11:39:15;;;;;;;0.93;0.82;;;26.05;78.67;;;;;;2672910;76;20924;-89
2022/08/11 11:42:43;;;;;;;;;;;26.23;78.79;;;;;;2673042;76;22240;-90
2022/08/11 11:46:12;;;;;;;1.95;0.78;;;26.35;78.49;;;;;;2671788;76;20954;-90
2022/08/11 11:49:42;;;;;;;;;;;26.28;78.50;;;;;;2671624;76;22184;-89
2022/08/11 11:53:12;;;;;;;3.87;1.15;;;26.36;78.75;;;;;;2672405;76;20964;-91
2022/08/11 11:56:40;;;;;;;;;;;26.43;78.40;;;;;;2674200;76;22209;-90
2022/08/11 12:03:57;;;;;;;2.42;0.98;;;26.61;78.45;;;;;;2672616;76;22654;-89
2022/08/11 12:14:59;;;;;;;2.92;0.80;;;26.91;77.05;;;;;;2671270;76;22136;-90
2022/08/11 12:18:28;;;;;;;;;;;27.15;76.78;;;;;;2671379;76;22213;-90
2022/08/11 12:29:33;;;;;;;4.42;1.45;;;27.39;75.91;;;;;;2671559;76;22142;-91
2022/08/11 12:33:02;;;;;;;;;;;27.47;76.04;;;;;;2672481;76;22420;-90
2022/08/11 12:36:36;;;;;;;3.08;1.27;;;27.89;75.62;;;;;;2673145;76;20957;-90
2022/08/11 12:51:55;;;;;;;2.17;0.98;;;27.80;74.57;;;;;;2672823;76;22150;-90
2022/08/11 12:54:53;;;;;;;6.17;1.10;;;27.74;74.29;;;;;;2673290;76;20386;-89
2022/08/11 12:58:21;;;;;;;;;;;27.71;74.09;;;;;;2673627;76;22974;-90
2022/08/11 13:05:37;;;;;;;2.20;1.20;;;27.79;73.70;;;;;;2672617;76;22178;-90
2022/08/11 13:09:05;;;;;;;;;;;27.87;73.63;;;;;;2670514;76;22595;-89
2022/08/11 13:12:47;;;;;;;1.82;1.17;;;28.19;73.15;;;;;;2669710;76;22135;-90
2022/08/11 13:16:16;;;;;;;2.83;0.93;;;28.80;72.32;;;;;;2671191;76;22202;-89
2022/08/11 13:19:45;;;;;;;;;;;29.01;71.48;;;;;;2671015;76;22155;-92
2022/08/11 13:23:15;;;;;;;1.27;0.82;;;29.00;71.23;;;;;;2671266;76;20992;-91
2022/08/11 13:26:43;;;;;;;;;;;28.97;71.01;;;;;;2671221;76;22164;-89
2022/08/11 13:34:02;;;;;;;5.00;1.10;;;29.02;71.01;;;;;;2673896;76;22162;-90
2022/08/11 13:37:30;;;;;;;;;;;29.13;70.54;;;;;;2672703;76;22616;-90
2022/08/11 13:40:59;;;;;;;5.40;0.90;;;29.26;70.10;;;;;;2673881;76;21345;-89
2022/08/11 13:44:27;;;;;;;;;;;29.44;69.40;;;;;;2672355;76;22177;-90
2022/08/11 13:47:58;;;;;;;2.02;0.85;;;29.34;69.25;;;;;;2673001;76;21508;-90
2022/08/11 13:51:37;;;;;;;;;;;29.24;68.49;;;;;;2673262;76;22604;-89
2022/08/11 13:55:02;;;;;;;;;;;29.35;67.89;;;;;;2674051;76;20854;-89
2022/08/11 13:58:31;;;;;;;1.67;0.80;;;29.30;68.10;;;;;;2672194;76;20958;-90
2022/08/11 14:02:02;;;;;;;;;;;29.26;67.48;;;;;;2673217;76;22538;-90
2022/08/11 14:05:32;;;;;;;3.00;0.85;;;29.43;67.42;;;;;;2672871;76;21521;-91
2022/08/11 14:09:00;;;;;;;;;;;29.75;66.86;;;;;;2672091;76;22206;-90
2022/08/11 14:16:21;;;;;;;5.53;0.68;;;30.15;66.10;;;;;;2672288;76;22069;-92
2022/08/11 14:19:50;;;;;;;;;;;30.48;65.51;;;;;;2670030;76;22700;-90
2022/08/11 14:23:20;;;;;;;1.62;0.80;;;30.83;64.77;;;;;;2669586;76;20997;-90
2022/08/11 14:26:50;;;;;;;;;;;31.09;64.09;;;;;;2672244;76;22510;-90
2022/08/11 14:34:07;;;;;;;3.35;1.10;;;32.55;62.31;;;;;;2671188;76;22141;-90
2022/08/11 14:37:36;;;;;;;;;;;36.04;59.67;;;;;;2670349;76;22601;-90
2022/08/11 14:48:41;;;;;;;1.87;1.35;;;36.03;56.29;;;;;;2672109;76;22167;-91
2022/08/11 14:52:09;;;;;;;;;;;34.96;56.40;;;;;;2673354;76;22619;-92
2022/08/11 14:59:26;;;;;;;1.07;0.75;;;35.19;56.36;;;;;;2673308;76;22147;-91
2022/08/11 15:03:11;;;;;;;;;;;35.78;56.18;;;;;;2673339;76;22169;-90
2022/08/11 15:06:37;;;;;;;5.00;0.80;;;35.79;55.36;;;;;;2673153;76;20399;-90
2022/08/11 15:10:05;;;;;;;;;;;35.80;55.62;;;;;;2672604;76;22194;-90
2022/08/11 15:13:37;;;;;;;1.12;0.95;;;36.52;54.49;;;;;;2672488;76;21002;-90
2022/08/11 15:17:08;;;;;;;;;;;37.02;53.52;;;;;;2672972;76;22160;-90
2022/08/11 15:24:23;;;;;;;;;;;40.58;50.66;;;;;;2673906;76;20420;-90
2022/08/11 15:39:00;;;;;;;1.40;1.00;;;43.37;46.21;;;;;;2675014;76;20390;-90
2022/08/11 15:46:32;;;;;;;2.62;0.93;;;41.87;45.52;;;;;;2674225;76;20384;-90
2022/08/11 15:50:04;;;;;;;3.33;1.35;;;41.90;45.66;;;;;;2674254;76;22182;-90
2022/08/11 15:53:32;;;;;;;;;;;43.31;44.92;;;;;;2673633;76;22590;-89
2022/08/11 15:57:02;;;;;;;1.12;0.88;;;42.69;44.62;;;;;;2673027;76;20960;-90
2022/08/11 16:04:20;;;;;;;1.27;0.95;;;41.92;44.92;;;;;;2672722;76;20857;-90
2022/08/11 16:07:48;;;;;;;;;;;39.74;45.96;;;;;;2674085;76;22066;-90
2022/08/11 16:11:18;;;;;;;1.02;0.90;;;37.51;48.19;;;;;;2674804;76;21416;-90
2022/08/11 16:18:42;;;;;;;0.80;0.72;;;34.50;51.83;;;;;;2674534;76;20385;-89
2022/08/11 16:22:12;;;;;;;0.70;0.70;;;32.73;53.53;;;;;;2674359;76;22185;-89
2022/08/11 16:25:40;;;;;;;;;;;33.55;54.47;;;;;;2674513;76;22168;-87
2022/08/11 16:29:10;;;;;;;2.25;0.80;;;36.10;52.46;;;;;;2674717;76;20973;-89
2022/08/11 16:32:38;;;;;;;;;;;36.86;50.50;;;;;;2674975;76;22183;-89
2022/08/11 16:39:57;;;;;;;5.62;1.17;;;39.95;47.84;;;;;;2674315;76;22144;-90
2022/08/11 16:47:15;;;;;;;3.08;1.17;;;42.01;45.12;;;;;;2674676;76;20396;-90
2022/08/11 16:50:43;;;;;;;;;;;42.07;44.44;;;;;;2673365;76;22592;-90
2022/08/11 16:54:12;;;;;;;1.45;0.85;;;41.39;44.52;;;;;;2672837;76;20982;-90
2022/08/11 17:01:27;;;;;;;3.02;0.75;;;41.57;44.25;;;;;;2674498;76;20369;-90
2022/08/11 17:16:21;;;;;;;2.33;1.10;;;40.80;44.32;;;;;;2673701;76;22234;-87
2022/08/11 17:19:49;;;;;;;;;;;40.30;43.88;;;;;;2673987;76;22183;-87
2022/08/11 17:27:07;;;;;;;0.62;0.60;;;40.32;43.30;;;;;;2673692;76;22159;-88
2022/08/11 17:38:08;;;;;;;;;;;37.42;44.94;;;;;;2673869;76;22191;-86
2022/08/11 17:49:14;;;;;;;1.62;0.90;;;28.91;55.91;;;;;;2674276;76;22160;-86
2022/08/11 18:00:17;;;;;;;3.85;0.95;;;26.73;60.24;;;;;;2674058;76;22159;-85
2022/08/11 18:03:45;;;;;;;;;;;26.30;61.68;;;;;;2673452;76;22231;-84
